sensor_id;sensor_type;location;lat;lon;timestamp;P1;durP1;ratioP1;P2;durP2;ratioP2
32242;SDS011;18731;42.830;24.390;2022-12-18T03:01:23;10.32;;;6.15;;
32242;SDS011;18731;42.830;24.390;2022-12-18T03:04:04;22.15;;;7.07;;
32242;SDS011;18731;42.830;24.390;2022-12-18T03:06:47;11.68;;;5.72;;
32242;SDS011;18731;42.830;24.390;2022-12-18T03:09:20;10.32;;;5.47;;
32242;SDS011;18731;42.830;24.390;2022-12-18T03:11:54;8.60;;;5.40;;
32242;SDS011;18731;42.830;24.390;2022-12-18T03:14:41;8.23;;;5.05;;
32242;SDS011;18731;42.830;24.390;2022-12-18T03:17:10;8.27;;;4.85;;
32242;SDS011;18731;42.830;24.390;2022-12-18T03:19:41;6.70;;;4.70;;
32242;SDS011;18731;42.830;24.390;2022-12-18T03:22:09;9.38;;;5.18;;
32242;SDS011;18731;42.830;24.390;2022-12-18T03:24:35;6.75;;;4.75;;
32242;SDS011;18731;42.830;24.390;2022-12-18T03:27:06;7.22;;;4.60;;
32242;SDS011;18731;42.830;24.390;2022-12-18T03:29:42;7.90;;;4.82;;
32242;SDS011;18731;42.830;24.390;2022-12-18T03:32:16;6.53;;;4.25;;
32242;SDS011;18731;42.830;24.390;2022-12-18T03:34:51;8.32;;;4.30;;
32242;SDS011;18731;42.830;24.390;2022-12-18T03:37:20;6.03;;;4.32;;
32242;SDS011;18731;42.830;24.390;2022-12-18T03:39:46;5.57;;;3.67;;
32242;SDS011;18731;42.830;24.390;2022-12-18T03:45:12;5.45;;;3.67;;
32242;SDS011;18731;42.830;24.390;2022-12-18T03:50:19;4.85;;;3.60;;
32242;SDS011;18731;42.830;24.390;2022-12-18T03:52:57;6.47;;;4.35;;
32242;SDS011;18731;42.830;24.390;2022-12-18T03:55:32;7.10;;;4.32;;
32242;SDS011;18731;42.830;24.390;2022-12-18T03:58:00;4.90;;;3.10;;
32242;SDS011;18731;42.830;24.390;2022-12-18T04:00:28;4.53;;;3.20;;
32242;SDS011;18731;42.830;24.390;2022-12-18T04:02:56;4.95;;;3.50;;
32242;SDS011;18731;42.830;24.390;2022-12-18T04:05:25;6.07;;;3.47;;
32242;SDS011;18731;42.830;24.390;2022-12-18T04:07:53;8.35;;;4.07;;
32242;SDS011;18731;42.830;24.390;2022-12-18T04:10:21;7.97;;;4.88;;
32242;SDS011;18731;42.830;24.390;2022-12-18T04:12:47;10.02;;;5.72;;
32242;SDS011;18731;42.830;24.390;2022-12-18T04:15:13;7.55;;;4.65;;
32242;SDS011;18731;42.830;24.390;2022-12-18T04:17:39;7.72;;;4.30;;
32242;SDS011;18731;42.830;24.390;2022-12-18T04:20:12;6.25;;;4.53;;
32242;SDS011;18731;42.830;24.390;2022-12-18T04:22:38;7.65;;;4.70;;
32242;SDS011;18731;42.830;24.390;2022-12-18T04:25:04;5.70;;;4.20;;
32242;SDS011;18731;42.830;24.390;2022-12-18T04:27:29;5.80;;;4.78;;
32242;SDS011;18731;42.830;24.390;2022-12-18T04:29:55;6.22;;;4.28;;
32242;SDS011;18731;42.830;24.390;2022-12-18T04:32:21;5.68;;;3.65;;
32242;SDS011;18731;42.830;24.390;2022-12-18T04:34:46;5.53;;;3.63;;
32242;SDS011;18731;42.830;24.390;2022-12-18T04:37:12;5.50;;;3.60;;
32242;SDS011;18731;42.830;24.390;2022-12-18T04:39:38;5.28;;;3.25;;
32242;SDS011;18731;42.830;24.390;2022-12-18T04:42:04;6.47;;;3.58;;
32242;SDS011;18731;42.830;24.390;2022-12-18T04:44:29;5.07;;;3.22;;
32242;SDS011;18731;42.830;24.390;2022-12-18T04:46:55;5.65;;;3.30;;
32242;SDS011;18731;42.830;24.390;2022-12-18T04:49:21;6.88;;;3.83;;
32242;SDS011;18731;42.830;24.390;2022-12-18T04:51:46;9.32;;;3.90;;
32242;SDS011;18731;42.830;24.390;2022-12-18T04:54:12;6.32;;;3.55;;
32242;SDS011;18731;42.830;24.390;2022-12-18T04:56:38;6.07;;;4.15;;
32242;SDS011;18731;42.830;24.390;2022-12-18T04:59:04;5.88;;;3.97;;
32242;SDS011;18731;42.830;24.390;2022-12-18T05:01:30;7.25;;;4.40;;
32242;SDS011;18731;42.830;24.390;2022-12-18T05:03:56;7.35;;;4.70;;
32242;SDS011;18731;42.830;24.390;2022-12-18T05:06:21;7.22;;;4.88;;
32242;SDS011;18731;42.830;24.390;2022-12-18T05:08:47;8.85;;;4.50;;
32242;SDS011;18731;42.830;24.390;2022-12-18T05:11:13;7.70;;;5.15;;
32242;SDS011;18731;42.830;24.390;2022-12-18T05:13:41;6.95;;;4.90;;
32242;SDS011;18731;42.830;24.390;2022-12-18T05:16:08;7.20;;;5.28;;
32242;SDS011;18731;42.830;24.390;2022-12-18T05:18:34;9.57;;;6.18;;
32242;SDS011;18731;42.830;24.390;2022-12-18T05:21:00;8.95;;;6.07;;
32242;SDS011;18731;42.830;24.390;2022-12-18T05:23:26;12.98;;;7.97;;
32242;SDS011;18731;42.830;24.390;2022-12-18T05:25:52;11.80;;;8.00;;
32242;SDS011;18731;42.830;24.390;2022-12-18T05:28:19;10.70;;;6.93;;
32242;SDS011;18731;42.830;24.390;2022-12-18T05:30:49;11.73;;;6.95;;
32242;SDS011;18731;42.830;24.390;2022-12-18T05:33:20;14.48;;;9.02;;
32242;SDS011;18731;42.830;24.390;2022-12-18T05:35:54;9.57;;;7.10;;
32242;SDS011;18731;42.830;24.390;2022-12-18T05:38:21;10.10;;;6.70;;
32242;SDS011;18731;42.830;24.390;2022-12-18T05:40:49;10.77;;;7.07;;
32242;SDS011;18731;42.830;24.390;2022-12-18T05:43:15;8.55;;;6.50;;
32242;SDS011;18731;42.830;24.390;2022-12-18T05:45:42;12.82;;;7.05;;
32242;SDS011;18731;42.830;24.390;2022-12-18T05:48:08;12.98;;;8.05;;
32242;SDS011;18731;42.830;24.390;2022-12-18T05:50:39;12.20;;;7.68;;
32242;SDS011;18731;42.830;24.390;2022-12-18T05:53:06;15.45;;;8.63;;
32242;SDS011;18731;42.830;24.390;2022-12-18T05:55:33;33.42;;;8.77;;
32242;SDS011;18731;42.830;24.390;2022-12-18T05:58:02;13.82;;;8.50;;
32242;SDS011;18731;42.830;24.390;2022-12-18T06:00:29;11.45;;;7.43;;
32242;SDS011;18731;42.830;24.390;2022-12-18T06:02:55;9.32;;;6.07;;
32242;SDS011;18731;42.830;24.390;2022-12-18T06:05:21;11.73;;;7.28;;
32242;SDS011;18731;42.830;24.390;2022-12-18T06:07:46;13.20;;;7.82;;
32242;SDS011;18731;42.830;24.390;2022-12-18T06:10:12;12.48;;;8.18;;
32242;SDS011;18731;42.830;24.390;2022-12-18T06:12:38;13.48;;;8.52;;
32242;SDS011;18731;42.830;24.390;2022-12-18T06:15:03;24.10;;;9.18;;
32242;SDS011;18731;42.830;24.390;2022-12-18T06:17:30;10.48;;;7.70;;
32242;SDS011;18731;42.830;24.390;2022-12-18T06:19:56;10.60;;;6.03;;
32242;SDS011;18731;42.830;24.390;2022-12-18T06:22:22;7.85;;;5.32;;
32242;SDS011;18731;42.830;24.390;2022-12-18T06:24:49;7.93;;;5.60;;
32242;SDS011;18731;42.830;24.390;2022-12-18T06:27:14;6.55;;;4.50;;
32242;SDS011;18731;42.830;24.390;2022-12-18T06:29:41;7.53;;;5.13;;
32242;SDS011;18731;42.830;24.390;2022-12-18T06:32:07;5.93;;;4.70;;
32242;SDS011;18731;42.830;24.390;2022-12-18T06:34:33;11.70;;;7.70;;
32242;SDS011;18731;42.830;24.390;2022-12-18T06:36:59;10.82;;;6.93;;
32242;SDS011;18731;42.830;24.390;2022-12-18T06:39:26;11.00;;;5.63;;
32242;SDS011;18731;42.830;24.390;2022-12-18T06:41:52;9.40;;;6.38;;
32242;SDS011;18731;42.830;24.390;2022-12-18T06:44:18;9.52;;;6.25;;
32242;SDS011;18731;42.830;24.390;2022-12-18T06:46:44;9.07;;;6.07;;
32242;SDS011;18731;42.830;24.390;2022-12-18T06:49:10;15.70;;;8.35;;
32242;SDS011;18731;42.830;24.390;2022-12-18T06:51:35;14.80;;;9.82;;
32242;SDS011;18731;42.830;24.390;2022-12-18T06:54:01;19.63;;;9.85;;
32242;SDS011;18731;42.830;24.390;2022-12-18T06:56:27;14.55;;;8.98;;
32242;SDS011;18731;42.830;24.390;2022-12-18T06:58:53;19.40;;;8.10;;
32242;SDS011;18731;42.830;24.390;2022-12-18T07:01:20;15.60;;;8.60;;
32242;SDS011;18731;42.830;24.390;2022-12-18T07:03:46;14.30;;;8.48;;
32242;SDS011;18731;42.830;24.390;2022-12-18T07:06:16;13.02;;;7.65;;
32242;SDS011;18731;42.830;24.390;2022-12-18T07:08:43;10.73;;;6.85;;
32242;SDS011;18731;42.830;24.390;2022-12-18T07:11:10;9.70;;;6.45;;
32242;SDS011;18731;42.830;24.390;2022-12-18T07:13:36;11.18;;;6.88;;
32242;SDS011;18731;42.830;24.390;2022-12-18T07:16:08;13.45;;;7.65;;
32242;SDS011;18731;42.830;24.390;2022-12-18T07:18:36;11.55;;;7.22;;
32242;SDS011;18731;42.830;24.390;2022-12-18T07:21:03;16.35;;;7.82;;
32242;SDS011;18731;42.830;24.390;2022-12-18T07:23:33;10.85;;;6.30;;
32242;SDS011;18731;42.830;24.390;2022-12-18T07:26:00;6.88;;;3.75;;
32242;SDS011;18731;42.830;24.390;2022-12-18T07:28:28;9.00;;;4.80;;
32242;SDS011;18731;42.830;24.390;2022-12-18T07:30:53;8.38;;;4.88;;
32242;SDS011;18731;42.830;24.390;2022-12-18T07:33:19;10.40;;;4.15;;
32242;SDS011;18731;42.830;24.390;2022-12-18T07:35:44;7.30;;;3.47;;
32242;SDS011;18731;42.830;24.390;2022-12-18T07:38:10;5.57;;;3.42;;
32242;SDS011;18731;42.830;24.390;2022-12-18T07:40:36;6.03;;;3.20;;
32242;SDS011;18731;42.830;24.390;2022-12-18T07:43:01;3.75;;;2.78;;
32242;SDS011;18731;42.830;24.390;2022-12-18T07:45:27;8.55;;;3.10;;
32242;SDS011;18731;42.830;24.390;2022-12-18T07:47:52;7.63;;;4.25;;
32242;SDS011;18731;42.830;24.390;2022-12-18T07:50:18;9.88;;;3.97;;
32242;SDS011;18731;42.830;24.390;2022-12-18T07:52:44;8.80;;;3.40;;
32242;SDS011;18731;42.830;24.390;2022-12-18T07:55:09;7.90;;;3.15;;
32242;SDS011;18731;42.830;24.390;2022-12-18T07:57:35;9.35;;;4.30;;
32242;SDS011;18731;42.830;24.390;2022-12-18T08:00:01;11.00;;;5.53;;
32242;SDS011;18731;42.830;24.390;2022-12-18T08:02:26;15.30;;;6.88;;
32242;SDS011;18731;42.830;24.390;2022-12-18T08:04:56;13.20;;;6.85;;
32242;SDS011;18731;42.830;24.390;2022-12-18T08:07:21;11.05;;;6.38;;
32242;SDS011;18731;42.830;24.390;2022-12-18T08:09:47;13.82;;;9.20;;
32242;SDS011;18731;42.830;24.390;2022-12-18T08:12:12;17.85;;;9.93;;
32242;SDS011;18731;42.830;24.390;2022-12-18T08:14:38;8.55;;;6.05;;
32242;SDS011;18731;42.830;24.390;2022-12-18T08:17:04;10.82;;;4.78;;
32242;SDS011;18731;42.830;24.390;2022-12-18T08:19:29;6.63;;;3.90;;
32242;SDS011;18731;42.830;24.390;2022-12-18T08:21:55;6.10;;;3.17;;
32242;SDS011;18731;42.830;24.390;2022-12-18T08:24:22;5.55;;;3.10;;
32242;SDS011;18731;42.830;24.390;2022-12-18T08:26:47;5.82;;;3.30;;
32242;SDS011;18731;42.830;24.390;2022-12-18T08:29:13;5.00;;;3.05;;
32242;SDS011;18731;42.830;24.390;2022-12-18T08:31:39;7.22;;;3.47;;
32242;SDS011;18731;42.830;24.390;2022-12-18T08:34:04;9.00;;;5.00;;
32242;SDS011;18731;42.830;24.390;2022-12-18T08:36:30;5.50;;;3.58;;
32242;SDS011;18731;42.830;24.390;2022-12-18T08:38:56;6.00;;;3.65;;
32242;SDS011;18731;42.830;24.390;2022-12-18T08:41:22;3.58;;;2.67;;
32242;SDS011;18731;42.830;24.390;2022-12-18T08:43:47;6.05;;;2.97;;
32242;SDS011;18731;42.830;24.390;2022-12-18T08:46:38;7.65;;;2.78;;
32242;SDS011;18731;42.830;24.390;2022-12-18T08:49:06;7.28;;;2.97;;
32242;SDS011;18731;42.830;24.390;2022-12-18T08:51:34;4.78;;;3.22;;
32242;SDS011;18731;42.830;24.390;2022-12-18T08:54:00;6.28;;;2.80;;
32242;SDS011;18731;42.830;24.390;2022-12-18T08:56:26;5.60;;;2.78;;
32242;SDS011;18731;42.830;24.390;2022-12-18T08:58:52;3.88;;;2.83;;
32242;SDS011;18731;42.830;24.390;2022-12-18T09:01:19;3.75;;;2.58;;
32242;SDS011;18731;42.830;24.390;2022-12-18T09:03:45;4.38;;;2.63;;
32242;SDS011;18731;42.830;24.390;2022-12-18T09:06:13;4.68;;;2.67;;
32242;SDS011;18731;42.830;24.390;2022-12-18T09:08:39;5.70;;;2.85;;
32242;SDS011;18731;42.830;24.390;2022-12-18T09:11:09;6.80;;;3.30;;
32242;SDS011;18731;42.830;24.390;2022-12-18T09:13:40;3.85;;;2.60;;
32242;SDS011;18731;42.830;24.390;2022-12-18T09:16:05;4.03;;;2.67;;
32242;SDS011;18731;42.830;24.390;2022-12-18T09:18:31;5.03;;;2.50;;
32242;SDS011;18731;42.830;24.390;2022-12-18T09:20:57;4.30;;;2.30;;
32242;SDS011;18731;42.830;24.390;2022-12-18T09:23:22;9.68;;;2.63;;
32242;SDS011;18731;42.830;24.390;2022-12-18T09:25:48;3.83;;;2.45;;
32242;SDS011;18731;42.830;24.390;2022-12-18T09:28:14;12.63;;;6.40;;
32242;SDS011;18731;42.830;24.390;2022-12-18T09:30:43;9.90;;;3.00;;
32242;SDS011;18731;42.830;24.390;2022-12-18T09:33:11;4.28;;;2.20;;
32242;SDS011;18731;42.830;24.390;2022-12-18T09:35:37;5.55;;;2.22;;
32242;SDS011;18731;42.830;24.390;2022-12-18T09:38:03;3.80;;;1.90;;
32242;SDS011;18731;42.830;24.390;2022-12-18T09:40:32;3.35;;;2.03;;
32242;SDS011;18731;42.830;24.390;2022-12-18T09:43:02;2.97;;;2.30;;
32242;SDS011;18731;42.830;24.390;2022-12-18T09:45:31;3.47;;;2.03;;
32242;SDS011;18731;42.830;24.390;2022-12-18T09:48:05;6.10;;;4.30;;
32242;SDS011;18731;42.830;24.390;2022-12-18T09:50:41;7.43;;;5.35;;
32242;SDS011;18731;42.830;24.390;2022-12-18T09:53:12;8.38;;;4.28;;
32242;SDS011;18731;42.830;24.390;2022-12-18T09:55:47;6.82;;;3.85;;
32242;SDS011;18731;42.830;24.390;2022-12-18T10:01:12;5.22;;;3.30;;
32242;SDS011;18731;42.830;24.390;2022-12-18T10:03:41;3.10;;;2.53;;
32242;SDS011;18731;42.830;24.390;2022-12-18T10:13:57;4.05;;;2.85;;
32242;SDS011;18731;42.830;24.390;2022-12-18T10:19:56;7.57;;;3.50;;
32242;SDS011;18731;42.830;24.390;2022-12-18T10:27:43;3.53;;;2.28;;
32242;SDS011;18731;42.830;24.390;2022-12-18T10:30:14;3.88;;;2.25;;
32242;SDS011;18731;42.830;24.390;2022-12-18T10:32:41;4.40;;;2.67;;
32242;SDS011;18731;42.830;24.390;2022-12-18T10:35:10;3.88;;;2.28;;
32242;SDS011;18731;42.830;24.390;2022-12-18T10:40:57;4.15;;;2.30;;
32242;SDS011;18731;42.830;24.390;2022-12-18T10:43:35;3.83;;;2.33;;
32242;SDS011;18731;42.830;24.390;2022-12-18T10:48:40;4.95;;;3.00;;
32242;SDS011;18731;42.830;24.390;2022-12-18T10:51:21;5.07;;;2.90;;
32242;SDS011;18731;42.830;24.390;2022-12-18T10:53:51;3.63;;;2.45;;
32242;SDS011;18731;42.830;24.390;2022-12-18T10:56:20;4.32;;;2.38;;
32242;SDS011;18731;42.830;24.390;2022-12-18T10:58:55;3.88;;;2.50;;
32242;SDS011;18731;42.830;24.390;2022-12-18T11:01:25;5.72;;;2.83;;
32242;SDS011;18731;42.830;24.390;2022-12-18T11:06:21;3.50;;;2.50;;
32242;SDS011;18731;42.830;24.390;2022-12-18T11:11:51;4.80;;;2.67;;
32242;SDS011;18731;42.830;24.390;2022-12-18T11:14:22;5.57;;;2.50;;
32242;SDS011;18731;42.830;24.390;2022-12-18T11:16:56;5.03;;;2.50;;
32242;SDS011;18731;42.830;24.390;2022-12-18T11:19:36;5.10;;;2.53;;
32242;SDS011;18731;42.830;24.390;2022-12-18T11:22:21;4.70;;;2.60;;
32242;SDS011;18731;42.830;24.390;2022-12-18T11:25:01;5.15;;;2.75;;
32242;SDS011;18731;42.830;24.390;2022-12-18T11:27:32;5.22;;;2.63;;
32242;SDS011;18731;42.830;24.390;2022-12-18T11:38:28;4.97;;;3.22;;
32242;SDS011;18731;42.830;24.390;2022-12-18T11:43:45;8.85;;;4.35;;
32242;SDS011;18731;42.830;24.390;2022-12-18T11:48:52;6.13;;;3.25;;
32242;SDS011;18731;42.830;24.390;2022-12-18T11:51:28;4.75;;;3.10;;
32242;SDS011;18731;42.830;24.390;2022-12-18T11:54:11;4.88;;;2.72;;
32242;SDS011;18731;42.830;24.390;2022-12-18T11:56:43;4.85;;;2.88;;
32242;SDS011;18731;42.830;24.390;2022-12-18T12:24:05;5.78;;;3.40;;
32242;SDS011;18731;42.830;24.390;2022-12-18T12:27:20;3.92;;;2.85;;
32242;SDS011;18731;42.830;24.390;2022-12-18T12:32:40;5.30;;;3.00;;
32242;SDS011;18731;42.830;24.390;2022-12-18T12:35:22;5.97;;;3.40;;
32242;SDS011;18731;42.830;24.390;2022-12-18T12:41:05;7.30;;;4.30;;
32242;SDS011;18731;42.830;24.390;2022-12-18T12:43:55;6.22;;;3.50;;
32242;SDS011;18731;42.830;24.390;2022-12-18T12:46:25;9.07;;;3.63;;
32242;SDS011;18731;42.830;24.390;2022-12-18T12:49:01;6.43;;;4.45;;
32242;SDS011;18731;42.830;24.390;2022-12-18T12:51:33;5.45;;;3.65;;
32242;SDS011;18731;42.830;24.390;2022-12-18T12:54:02;7.70;;;3.80;;
32242;SDS011;18731;42.830;24.390;2022-12-18T12:56:39;4.70;;;3.20;;
32242;SDS011;18731;42.830;24.390;2022-12-18T12:59:15;4.78;;;3.55;;
32242;SDS011;18731;42.830;24.390;2022-12-18T13:01:50;7.55;;;3.22;;
32242;SDS011;18731;42.830;24.390;2022-12-18T13:07:23;4.53;;;3.20;;
32242;SDS011;18731;42.830;24.390;2022-12-18T13:10:11;15.82;;;8.85;;
32242;SDS011;18731;42.830;24.390;2022-12-18T13:12:51;7.78;;;4.10;;
32242;SDS011;18731;42.830;24.390;2022-12-18T13:20:36;6.85;;;4.55;;
32242;SDS011;18731;42.830;24.390;2022-12-18T13:25:44;5.88;;;3.10;;
32242;SDS011;18731;42.830;24.390;2022-12-18T13:28:11;6.75;;;3.40;;
32242;SDS011;18731;42.830;24.390;2022-12-18T13:30:45;5.45;;;3.25;;
32242;SDS011;18731;42.830;24.390;2022-12-18T13:46:20;6.30;;;3.78;;
32242;SDS011;18731;42.830;24.390;2022-12-18T13:49:00;7.30;;;4.53;;
32242;SDS011;18731;42.830;24.390;2022-12-18T13:51:30;10.82;;;5.15;;
32242;SDS011;18731;42.830;24.390;2022-12-18T13:53:59;9.30;;;5.05;;
32242;SDS011;18731;42.830;24.390;2022-12-18T13:56:30;10.02;;;5.38;;
32242;SDS011;18731;42.830;24.390;2022-12-18T13:59:05;10.00;;;5.65;;
32242;SDS011;18731;42.830;24.390;2022-12-18T14:01:35;10.75;;;5.68;;
32242;SDS011;18731;42.830;24.390;2022-12-18T14:07:06;10.30;;;5.65;;
32242;SDS011;18731;42.830;24.390;2022-12-18T14:09:37;10.32;;;5.70;;
32242;SDS011;18731;42.830;24.390;2022-12-18T14:12:11;8.02;;;5.20;;
32242;SDS011;18731;42.830;24.390;2022-12-18T14:15:09;8.05;;;4.13;;
32242;SDS011;18731;42.830;24.390;2022-12-18T14:17:59;7.10;;;3.80;;
32242;SDS011;18731;42.830;24.390;2022-12-18T14:20:29;6.80;;;4.13;;
32242;SDS011;18731;42.830;24.390;2022-12-18T14:22:57;6.43;;;3.95;;
32242;SDS011;18731;42.830;24.390;2022-12-18T14:25:29;7.55;;;4.78;;
32242;SDS011;18731;42.830;24.390;2022-12-18T14:30:35;8.60;;;4.68;;
32242;SDS011;18731;42.830;24.390;2022-12-18T14:33:06;10.00;;;5.40;;
32242;SDS011;18731;42.830;24.390;2022-12-18T14:35:35;7.78;;;4.88;;
32242;SDS011;18731;42.830;24.390;2022-12-18T14:40:41;11.00;;;5.57;;
32242;SDS011;18731;42.830;24.390;2022-12-18T14:43:11;11.65;;;5.00;;
32242;SDS011;18731;42.830;24.390;2022-12-18T14:45:37;6.72;;;4.60;;
32242;SDS011;18731;42.830;24.390;2022-12-18T14:48:15;10.23;;;5.32;;
32242;SDS011;18731;42.830;24.390;2022-12-18T14:50:44;10.57;;;6.00;;
32242;SDS011;18731;42.830;24.390;2022-12-18T14:53:37;11.40;;;6.53;;
32242;SDS011;18731;42.830;24.390;2022-12-18T14:56:27;11.90;;;6.40;;
32242;SDS011;18731;42.830;24.390;2022-12-18T14:59:03;12.52;;;6.40;;
32242;SDS011;18731;42.830;24.390;2022-12-18T15:01:37;9.63;;;6.32;;
32242;SDS011;18731;42.830;24.390;2022-12-18T15:06:48;12.38;;;6.63;;
32242;SDS011;18731;42.830;24.390;2022-12-18T15:09:23;13.90;;;7.03;;
32242;SDS011;18731;42.830;24.390;2022-12-18T15:11:55;11.07;;;6.07;;
32242;SDS011;18731;42.830;24.390;2022-12-18T15:17:17;10.40;;;5.20;;
32242;SDS011;18731;42.830;24.390;2022-12-18T15:19:45;9.93;;;5.72;;
32242;SDS011;18731;42.830;24.390;2022-12-18T15:22:19;10.35;;;5.90;;
32242;SDS011;18731;42.830;24.390;2022-12-18T15:24:45;9.85;;;5.88;;
32242;SDS011;18731;42.830;24.390;2022-12-18T15:30:01;8.10;;;5.07;;
32242;SDS011;18731;42.830;24.390;2022-12-18T15:32:30;10.32;;;5.50;;
32242;SDS011;18731;42.830;24.390;2022-12-18T15:35:03;10.50;;;5.90;;
32242;SDS011;18731;42.830;24.390;2022-12-18T15:37:38;8.43;;;5.15;;
32242;SDS011;18731;42.830;24.390;2022-12-18T15:40:04;7.70;;;4.50;;
32242;SDS011;18731;42.830;24.390;2022-12-18T15:42:30;8.10;;;4.05;;
32242;SDS011;18731;42.830;24.390;2022-12-18T15:45:14;9.55;;;4.25;;
32242;SDS011;18731;42.830;24.390;2022-12-18T15:47:40;7.57;;;4.53;;
32242;SDS011;18731;42.830;24.390;2022-12-18T15:50:09;9.00;;;4.65;;
32242;SDS011;18731;42.830;24.390;2022-12-18T15:52:38;7.80;;;4.28;;
32242;SDS011;18731;42.830;24.390;2022-12-18T15:55:15;7.80;;;4.10;;
32242;SDS011;18731;42.830;24.390;2022-12-18T15:58:04;8.48;;;4.53;;
32242;SDS011;18731;42.830;24.390;2022-12-18T16:00:31;5.95;;;3.67;;
32242;SDS011;18731;42.830;24.390;2022-12-18T16:02:59;10.45;;;5.57;;
32242;SDS011;18731;42.830;24.390;2022-12-18T16:05:25;7.18;;;4.57;;
32242;SDS011;18731;42.830;24.390;2022-12-18T16:07:52;8.02;;;5.03;;
32242;SDS011;18731;42.830;24.390;2022-12-18T16:10:17;7.53;;;5.05;;
32242;SDS011;18731;42.830;24.390;2022-12-18T16:12:43;16.08;;;7.55;;
32242;SDS011;18731;42.830;24.390;2022-12-18T16:15:10;15.85;;;8.07;;
32242;SDS011;18731;42.830;24.390;2022-12-18T16:17:39;16.00;;;8.65;;
32242;SDS011;18731;42.830;24.390;2022-12-18T16:20:06;11.40;;;7.32;;
32242;SDS011;18731;42.830;24.390;2022-12-18T16:22:43;15.15;;;7.78;;
32242;SDS011;18731;42.830;24.390;2022-12-18T16:25:20;12.95;;;7.82;;
32242;SDS011;18731;42.830;24.390;2022-12-18T16:27:48;16.45;;;9.02;;
32242;SDS011;18731;42.830;24.390;2022-12-18T16:30:18;15.80;;;8.65;;
32242;SDS011;18731;42.830;24.390;2022-12-18T16:32:45;19.92;;;10.00;;
32242;SDS011;18731;42.830;24.390;2022-12-18T16:35:12;18.23;;;10.18;;
32242;SDS011;18731;42.830;24.390;2022-12-18T16:37:39;14.98;;;7.90;;
32242;SDS011;18731;42.830;24.390;2022-12-18T16:40:09;19.92;;;9.30;;
32242;SDS011;18731;42.830;24.390;2022-12-18T16:42:40;14.23;;;8.25;;
32242;SDS011;18731;42.830;24.390;2022-12-18T16:45:08;13.77;;;8.27;;
32242;SDS011;18731;42.830;24.390;2022-12-18T16:47:36;15.52;;;8.50;;
32242;SDS011;18731;42.830;24.390;2022-12-18T16:50:02;17.60;;;10.05;;
32242;SDS011;18731;42.830;24.390;2022-12-18T16:52:28;14.38;;;7.95;;
32242;SDS011;18731;42.830;24.390;2022-12-18T16:54:54;18.70;;;9.13;;
32242;SDS011;18731;42.830;24.390;2022-12-18T16:57:21;15.68;;;7.38;;
32242;SDS011;18731;42.830;24.390;2022-12-18T16:59:47;13.52;;;6.45;;
32242;SDS011;18731;42.830;24.390;2022-12-18T17:02:14;11.07;;;5.95;;
32242;SDS011;18731;42.830;24.390;2022-12-18T17:04:42;11.35;;;6.50;;
32242;SDS011;18731;42.830;24.390;2022-12-18T17:07:09;13.40;;;6.40;;
32242;SDS011;18731;42.830;24.390;2022-12-18T17:09:35;12.60;;;6.85;;
32242;SDS011;18731;42.830;24.390;2022-12-18T17:12:01;11.35;;;5.78;;
32242;SDS011;18731;42.830;24.390;2022-12-18T17:14:27;13.50;;;6.22;;
32242;SDS011;18731;42.830;24.390;2022-12-18T17:16:53;14.50;;;6.57;;
32242;SDS011;18731;42.830;24.390;2022-12-18T17:19:19;14.13;;;6.85;;
32242;SDS011;18731;42.830;24.390;2022-12-18T17:21:46;15.60;;;7.65;;
32242;SDS011;18731;42.830;24.390;2022-12-18T17:24:13;17.95;;;7.68;;
32242;SDS011;18731;42.830;24.390;2022-12-18T17:26:39;18.85;;;8.85;;
32242;SDS011;18731;42.830;24.390;2022-12-18T17:29:06;16.70;;;8.43;;
32242;SDS011;18731;42.830;24.390;2022-12-18T17:31:32;14.00;;;7.43;;
32242;SDS011;18731;42.830;24.390;2022-12-18T17:33:59;18.50;;;8.70;;
32242;SDS011;18731;42.830;24.390;2022-12-18T17:36:26;18.10;;;9.18;;
32242;SDS011;18731;42.830;24.390;2022-12-18T17:38:57;13.95;;;7.90;;
32242;SDS011;18731;42.830;24.390;2022-12-18T17:41:25;16.25;;;8.00;;
32242;SDS011;18731;42.830;24.390;2022-12-18T17:43:53;13.40;;;7.30;;
32242;SDS011;18731;42.830;24.390;2022-12-18T17:46:20;18.13;;;7.55;;
32242;SDS011;18731;42.830;24.390;2022-12-18T17:48:46;17.15;;;8.00;;
32242;SDS011;18731;42.830;24.390;2022-12-18T17:51:12;16.27;;;7.63;;
32242;SDS011;18731;42.830;24.390;2022-12-18T17:53:39;12.02;;;7.25;;
32242;SDS011;18731;42.830;24.390;2022-12-18T17:56:05;13.20;;;6.97;;
32242;SDS011;18731;42.830;24.390;2022-12-18T17:58:32;14.98;;;7.65;;
32242;SDS011;18731;42.830;24.390;2022-12-18T18:01:02;17.50;;;7.78;;
32242;SDS011;18731;42.830;24.390;2022-12-18T18:03:30;16.40;;;8.18;;
32242;SDS011;18731;42.830;24.390;2022-12-18T18:05:57;16.02;;;7.80;;
32242;SDS011;18731;42.830;24.390;2022-12-18T18:08:25;16.00;;;7.40;;
32242;SDS011;18731;42.830;24.390;2022-12-18T18:10:51;15.57;;;7.35;;
32242;SDS011;18731;42.830;24.390;2022-12-18T18:13:19;16.60;;;7.40;;
32242;SDS011;18731;42.830;24.390;2022-12-18T18:16:05;15.52;;;7.60;;
32242;SDS011;18731;42.830;24.390;2022-12-18T18:18:31;13.65;;;7.18;;
32242;SDS011;18731;42.830;24.390;2022-12-18T18:20:57;13.98;;;7.10;;
32242;SDS011;18731;42.830;24.390;2022-12-18T18:23:23;14.77;;;7.43;;
32242;SDS011;18731;42.830;24.390;2022-12-18T18:25:49;18.88;;;7.72;;
32242;SDS011;18731;42.830;24.390;2022-12-18T18:28:14;15.23;;;7.50;;
32242;SDS011;18731;42.830;24.390;2022-12-18T18:30:40;14.65;;;7.70;;
32242;SDS011;18731;42.830;24.390;2022-12-18T18:33:06;17.42;;;8.32;;
32242;SDS011;18731;42.830;24.390;2022-12-18T18:35:31;16.70;;;8.27;;
32242;SDS011;18731;42.830;24.390;2022-12-18T18:37:57;18.30;;;8.65;;
32242;SDS011;18731;42.830;24.390;2022-12-18T18:40:22;16.13;;;8.02;;
32242;SDS011;18731;42.830;24.390;2022-12-18T18:42:48;15.27;;;7.53;;
32242;SDS011;18731;42.830;24.390;2022-12-18T18:45:14;17.50;;;8.73;;
32242;SDS011;18731;42.830;24.390;2022-12-18T18:47:39;16.05;;;8.27;;
32242;SDS011;18731;42.830;24.390;2022-12-18T18:50:05;20.25;;;9.73;;
32242;SDS011;18731;42.830;24.390;2022-12-18T18:52:31;18.90;;;8.43;;
32242;SDS011;18731;42.830;24.390;2022-12-18T18:54:57;29.25;;;12.43;;
32242;SDS011;18731;42.830;24.390;2022-12-18T18:57:22;26.02;;;12.20;;
32242;SDS011;18731;42.830;24.390;2022-12-18T18:59:48;23.65;;;10.90;;
32242;SDS011;18731;42.830;24.390;2022-12-18T19:02:14;18.70;;;9.00;;
32242;SDS011;18731;42.830;24.390;2022-12-18T19:04:40;20.13;;;10.57;;
32242;SDS011;18731;42.830;24.390;2022-12-18T19:07:06;24.60;;;11.45;;
32242;SDS011;18731;42.830;24.390;2022-12-18T19:09:32;33.40;;;15.13;;
32242;SDS011;18731;42.830;24.390;2022-12-18T19:12:00;26.67;;;12.30;;
32242;SDS011;18731;42.830;24.390;2022-12-18T19:14:45;38.47;;;17.02;;
32242;SDS011;18731;42.830;24.390;2022-12-18T19:17:10;36.47;;;17.00;;
32242;SDS011;18731;42.830;24.390;2022-12-18T19:19:36;30.88;;;13.23;;
32242;SDS011;18731;42.830;24.390;2022-12-18T19:22:02;26.73;;;13.48;;
32242;SDS011;18731;42.830;24.390;2022-12-18T19:24:28;22.02;;;10.65;;
32242;SDS011;18731;42.830;24.390;2022-12-18T19:26:53;18.65;;;9.75;;
32242;SDS011;18731;42.830;24.390;2022-12-18T19:29:19;21.02;;;10.88;;
32242;SDS011;18731;42.830;24.390;2022-12-18T19:31:45;21.92;;;10.35;;
32242;SDS011;18731;42.830;24.390;2022-12-18T19:34:10;19.45;;;9.63;;
32242;SDS011;18731;42.830;24.390;2022-12-18T19:36:37;20.02;;;10.30;;
32242;SDS011;18731;42.830;24.390;2022-12-18T19:39:11;19.10;;;9.57;;
32242;SDS011;18731;42.830;24.390;2022-12-18T19:41:40;20.08;;;9.98;;